sensor_id;sensor_type;location;lat;lon;timestamp;P1;durP1;ratioP1;P2;durP2;ratioP2
37805;SDS011;25082;50.870;0.022;2023-02-21T00:01:52;2.72;;;1.40;;
37805;SDS011;25082;50.870;0.022;2023-02-21T00:04:36;1.85;;;1.70;;
37805;SDS011;25082;50.870;0.022;2023-02-21T00:07:20;4.13;;;2.10;;
37805;SDS011;25082;50.870;0.022;2023-02-21T00:10:06;3.13;;;2.00;;
37805;SDS011;25082;50.870;0.022;2023-02-21T00:12:50;2.90;;;1.90;;
37805;SDS011;25082;50.870;0.022;2023-02-21T00:15:34;3.08;;;2.30;;
37805;SDS011;25082;50.870;0.022;2023-02-21T00:18:18;3.30;;;1.92;;
37805;SDS011;25082;50.870;0.022;2023-02-21T00:21:03;2.83;;;2.33;;
37805;SDS011;25082;50.870;0.022;2023-02-21T00:23:48;4.68;;;2.55;;
37805;SDS011;25082;50.870;0.022;2023-02-21T00:26:32;2.60;;;2.10;;
37805;SDS011;25082;50.870;0.022;2023-02-21T00:29:16;3.60;;;2.20;;
37805;SDS011;25082;50.870;0.022;2023-02-21T00:32:00;3.58;;;2.42;;
37805;SDS011;25082;50.870;0.022;2023-02-21T00:34:45;3.35;;;2.22;;
37805;SDS011;25082;50.870;0.022;2023-02-21T00:37:29;4.25;;;2.65;;
37805;SDS011;25082;50.870;0.022;2023-02-21T00:40:14;3.40;;;2.50;;
37805;SDS011;25082;50.870;0.022;2023-02-21T00:42:59;3.58;;;2.67;;
37805;SDS011;25082;50.870;0.022;2023-02-21T00:45:44;4.05;;;2.90;;
37805;SDS011;25082;50.870;0.022;2023-02-21T00:48:28;4.18;;;2.95;;
37805;SDS011;25082;50.870;0.022;2023-02-21T00:51:12;2.83;;;2.53;;
37805;SDS011;25082;50.870;0.022;2023-02-21T00:53:57;4.40;;;2.95;;
37805;SDS011;25082;50.870;0.022;2023-02-21T00:56:41;3.13;;;2.60;;
37805;SDS011;25082;50.870;0.022;2023-02-21T00:59:25;3.67;;;2.85;;
37805;SDS011;25082;50.870;0.022;2023-02-21T01:02:09;4.07;;;2.70;;
37805;SDS011;25082;50.870;0.022;2023-02-21T01:04:54;5.80;;;3.25;;
37805;SDS011;25082;50.870;0.022;2023-02-21T01:07:38;3.35;;;2.80;;
37805;SDS011;25082;50.870;0.022;2023-02-21T01:10:22;4.50;;;3.08;;
37805;SDS011;25082;50.870;0.022;2023-02-21T01:13:07;3.65;;;3.00;;
37805;SDS011;25082;50.870;0.022;2023-02-21T01:15:51;5.10;;;3.20;;
37805;SDS011;25082;50.870;0.022;2023-02-21T01:18:35;5.03;;;3.03;;
37805;SDS011;25082;50.870;0.022;2023-02-21T01:21:20;3.42;;;2.72;;
37805;SDS011;25082;50.870;0.022;2023-02-21T01:24:05;5.05;;;3.55;;
37805;SDS011;25082;50.870;0.022;2023-02-21T01:26:49;4.78;;;3.05;;
37805;SDS011;25082;50.870;0.022;2023-02-21T01:29:34;3.03;;;2.58;;
37805;SDS011;25082;50.870;0.022;2023-02-21T01:32:19;3.28;;;2.97;;
37805;SDS011;25082;50.870;0.022;2023-02-21T01:35:03;5.50;;;3.20;;
37805;SDS011;25082;50.870;0.022;2023-02-21T01:37:47;4.43;;;3.28;;
37805;SDS011;25082;50.870;0.022;2023-02-21T01:40:31;4.25;;;2.97;;
37805;SDS011;25082;50.870;0.022;2023-02-21T01:43:19;4.68;;;3.22;;
37805;SDS011;25082;50.870;0.022;2023-02-21T01:46:04;4.53;;;3.17;;
37805;SDS011;25082;50.870;0.022;2023-02-21T01:48:52;4.70;;;3.40;;
37805;SDS011;25082;50.870;0.022;2023-02-21T01:51:38;3.45;;;2.75;;
37805;SDS011;25082;50.870;0.022;2023-02-21T01:54:31;4.25;;;3.25;;
37805;SDS011;25082;50.870;0.022;2023-02-21T01:57:18;4.20;;;3.17;;
37805;SDS011;25082;50.870;0.022;2023-02-21T02:00:04;3.13;;;2.78;;
37805;SDS011;25082;50.870;0.022;2023-02-21T02:02:56;3.33;;;3.03;;
37805;SDS011;25082;50.870;0.022;2023-02-21T02:05:42;3.60;;;2.80;;
37805;SDS011;25082;50.870;0.022;2023-02-21T02:08:30;4.00;;;2.88;;
37805;SDS011;25082;50.870;0.022;2023-02-21T02:20:17;4.38;;;3.30;;
37805;SDS011;25082;50.870;0.022;2023-02-21T02:33:54;3.90;;;3.08;;
37805;SDS011;25082;50.870;0.022;2023-02-21T02:39:32;4.13;;;3.47;;
37805;SDS011;25082;50.870;0.022;2023-02-21T02:44:53;6.90;;;4.20;;
37805;SDS011;25082;50.870;0.022;2023-02-21T02:47:25;4.30;;;3.75;;
37805;SDS011;25082;50.870;0.022;2023-02-21T02:49:54;5.57;;;4.22;;
37805;SDS011;25082;50.870;0.022;2023-02-21T02:52:21;4.40;;;4.00;;
37805;SDS011;25082;50.870;0.022;2023-02-21T02:54:59;5.82;;;4.30;;
37805;SDS011;25082;50.870;0.022;2023-02-21T02:57:44;4.82;;;4.00;;
37805;SDS011;25082;50.870;0.022;2023-02-21T03:00:13;4.43;;;4.03;;
37805;SDS011;25082;50.870;0.022;2023-02-21T03:13:17;6.22;;;4.55;;
37805;SDS011;25082;50.870;0.022;2023-02-21T03:18:35;5.22;;;4.70;;
37805;SDS011;25082;50.870;0.022;2023-02-21T03:21:12;6.18;;;4.93;;
37805;SDS011;25082;50.870;0.022;2023-02-21T03:23:42;6.75;;;5.25;;
37805;SDS011;25082;50.870;0.022;2023-02-21T03:26:11;5.22;;;4.30;;
37805;SDS011;25082;50.870;0.022;2023-02-21T03:28:38;5.47;;;4.97;;
37805;SDS011;25082;50.870;0.022;2023-02-21T03:31:06;6.60;;;5.38;;
37805;SDS011;25082;50.870;0.022;2023-02-21T03:33:33;5.53;;;4.75;;
37805;SDS011;25082;50.870;0.022;2023-02-21T03:35:59;5.90;;;5.30;;
37805;SDS011;25082;50.870;0.022;2023-02-21T03:38:30;5.93;;;5.18;;
37805;SDS011;25082;50.870;0.022;2023-02-21T03:40:56;5.35;;;4.85;;
37805;SDS011;25082;50.870;0.022;2023-02-21T03:43:22;6.25;;;5.53;;
37805;SDS011;25082;50.870;0.022;2023-02-21T03:45:48;7.43;;;5.60;;
37805;SDS011;25082;50.870;0.022;2023-02-21T03:48:13;6.35;;;5.63;;
37805;SDS011;25082;50.870;0.022;2023-02-21T03:50:39;6.68;;;5.57;;
37805;SDS011;25082;50.870;0.022;2023-02-21T03:53:05;6.40;;;5.80;;
37805;SDS011;25082;50.870;0.022;2023-02-21T03:55:31;7.82;;;5.85;;
37805;SDS011;25082;50.870;0.022;2023-02-21T03:57:57;7.13;;;6.00;;
37805;SDS011;25082;50.870;0.022;2023-02-21T04:00:23;7.40;;;6.30;;
37805;SDS011;25082;50.870;0.022;2023-02-21T04:02:48;6.97;;;6.18;;
37805;SDS011;25082;50.870;0.022;2023-02-21T04:05:14;6.40;;;5.70;;
37805;SDS011;25082;50.870;0.022;2023-02-21T04:07:40;7.15;;;6.38;;
37805;SDS011;25082;50.870;0.022;2023-02-21T04:10:06;6.40;;;5.68;;
37805;SDS011;25082;50.870;0.022;2023-02-21T04:12:31;7.55;;;6.15;;
37805;SDS011;25082;50.870;0.022;2023-02-21T04:14:57;6.38;;;5.68;;
37805;SDS011;25082;50.870;0.022;2023-02-21T04:17:23;7.10;;;5.90;;
37805;SDS011;25082;50.870;0.022;2023-02-21T04:19:49;7.38;;;6.03;;
37805;SDS011;25082;50.870;0.022;2023-02-21T04:22:15;7.50;;;5.95;;
37805;SDS011;25082;50.870;0.022;2023-02-21T04:24:41;6.97;;;6.03;;
37805;SDS011;25082;50.870;0.022;2023-02-21T04:27:07;6.22;;;5.50;;
37805;SDS011;25082;50.870;0.022;2023-02-21T04:29:33;6.97;;;6.28;;
37805;SDS011;25082;50.870;0.022;2023-02-21T04:31:59;7.63;;;6.28;;
37805;SDS011;25082;50.870;0.022;2023-02-21T04:34:24;7.80;;;6.95;;
37805;SDS011;25082;50.870;0.022;2023-02-21T04:36:50;7.47;;;6.47;;
37805;SDS011;25082;50.870;0.022;2023-02-21T04:39:16;8.15;;;6.55;;
37805;SDS011;25082;50.870;0.022;2023-02-21T04:41:41;8.73;;;5.97;;
37805;SDS011;25082;50.870;0.022;2023-02-21T04:44:07;8.02;;;6.55;;
37805;SDS011;25082;50.870;0.022;2023-02-21T04:46:34;9.13;;;6.72;;
37805;SDS011;25082;50.870;0.022;2023-02-21T04:48:59;7.65;;;6.25;;
37805;SDS011;25082;50.870;0.022;2023-02-21T04:51:25;10.07;;;6.85;;
37805;SDS011;25082;50.870;0.022;2023-02-21T04:53:52;8.48;;;7.45;;
37805;SDS011;25082;50.870;0.022;2023-02-21T04:56:20;7.25;;;6.25;;
37805;SDS011;25082;50.870;0.022;2023-02-21T04:58:47;7.80;;;6.30;;
37805;SDS011;25082;50.870;0.022;2023-02-21T05:01:14;6.80;;;5.93;;
37805;SDS011;25082;50.870;0.022;2023-02-21T05:03:40;7.00;;;6.30;;
37805;SDS011;25082;50.870;0.022;2023-02-21T05:06:06;6.90;;;6.13;;
37805;SDS011;25082;50.870;0.022;2023-02-21T05:08:32;7.25;;;5.68;;
37805;SDS011;25082;50.870;0.022;2023-02-21T05:10:57;6.88;;;5.88;;
37805;SDS011;25082;50.870;0.022;2023-02-21T05:13:23;7.47;;;6.30;;
37805;SDS011;25082;50.870;0.022;2023-02-21T05:15:49;6.53;;;5.70;;
37805;SDS011;25082;50.870;0.022;2023-02-21T05:18:15;7.50;;;5.80;;
37805;SDS011;25082;50.870;0.022;2023-02-21T05:20:48;7.32;;;6.15;;
37805;SDS011;25082;50.870;0.022;2023-02-21T05:23:14;6.88;;;5.80;;
37805;SDS011;25082;50.870;0.022;2023-02-21T05:25:41;6.68;;;5.95;;
37805;SDS011;25082;50.870;0.022;2023-02-21T05:28:07;6.10;;;5.35;;
37805;SDS011;25082;50.870;0.022;2023-02-21T05:30:33;6.10;;;5.50;;
37805;SDS011;25082;50.870;0.022;2023-02-21T05:32:59;6.13;;;5.40;;
37805;SDS011;25082;50.870;0.022;2023-02-21T05:35:25;7.18;;;5.80;;
37805;SDS011;25082;50.870;0.022;2023-02-21T05:37:50;6.53;;;5.63;;
37805;SDS011;25082;50.870;0.022;2023-02-21T05:40:16;5.97;;;4.80;;
37805;SDS011;25082;50.870;0.022;2023-02-21T05:42:42;6.68;;;5.90;;
37805;SDS011;25082;50.870;0.022;2023-02-21T05:45:08;6.57;;;5.40;;
37805;SDS011;25082;50.870;0.022;2023-02-21T05:47:36;5.55;;;4.95;;
37805;SDS011;25082;50.870;0.022;2023-02-21T05:50:03;6.80;;;4.57;;
37805;SDS011;25082;50.870;0.022;2023-02-21T05:52:29;5.60;;;4.78;;
37805;SDS011;25082;50.870;0.022;2023-02-21T05:54:54;6.50;;;5.70;;
37805;SDS011;25082;50.870;0.022;2023-02-21T05:57:20;5.70;;;4.80;;
37805;SDS011;25082;50.870;0.022;2023-02-21T05:59:46;6.65;;;5.05;;
37805;SDS011;25082;50.870;0.022;2023-02-21T06:02:13;5.93;;;5.03;;
37805;SDS011;25082;50.870;0.022;2023-02-21T06:04:39;6.47;;;5.18;;
37805;SDS011;25082;50.870;0.022;2023-02-21T06:07:05;5.43;;;4.80;;
37805;SDS011;25082;50.870;0.022;2023-02-21T06:09:30;6.82;;;5.22;;
37805;SDS011;25082;50.870;0.022;2023-02-21T06:11:56;6.78;;;5.38;;
37805;SDS011;25082;50.870;0.022;2023-02-21T06:14:22;6.35;;;4.75;;
37805;SDS011;25082;50.870;0.022;2023-02-21T06:16:49;6.82;;;4.88;;
37805;SDS011;25082;50.870;0.022;2023-02-21T06:19:15;6.05;;;5.32;;
37805;SDS011;25082;50.870;0.022;2023-02-21T06:21:42;5.25;;;4.55;;
37805;SDS011;25082;50.870;0.022;2023-02-21T06:24:08;5.35;;;4.25;;
37805;SDS011;25082;50.870;0.022;2023-02-21T06:26:34;5.95;;;4.97;;
37805;SDS011;25082;50.870;0.022;2023-02-21T06:29:02;6.15;;;4.53;;
37805;SDS011;25082;50.870;0.022;2023-02-21T06:31:31;5.38;;;4.60;;
37805;SDS011;25082;50.870;0.022;2023-02-21T06:33:57;4.78;;;4.28;;
37805;SDS011;25082;50.870;0.022;2023-02-21T06:36:24;6.53;;;4.63;;
37805;SDS011;25082;50.870;0.022;2023-02-21T06:38:52;5.78;;;4.50;;
37805;SDS011;25082;50.870;0.022;2023-02-21T06:41:28;5.43;;;4.65;;
37805;SDS011;25082;50.870;0.022;2023-02-21T06:43:55;5.90;;;4.65;;
37805;SDS011;25082;50.870;0.022;2023-02-21T06:46:23;6.63;;;4.65;;
37805;SDS011;25082;50.870;0.022;2023-02-21T06:48:50;5.18;;;4.68;;
37805;SDS011;25082;50.870;0.022;2023-02-21T06:51:16;5.68;;;4.88;;
37805;SDS011;25082;50.870;0.022;2023-02-21T06:53:44;4.55;;;4.00;;
37805;SDS011;25082;50.870;0.022;2023-02-21T06:56:13;5.25;;;4.63;;
37805;SDS011;25082;50.870;0.022;2023-02-21T06:58:38;6.15;;;4.93;;
37805;SDS011;25082;50.870;0.022;2023-02-21T07:01:04;6.05;;;4.85;;
37805;SDS011;25082;50.870;0.022;2023-02-21T07:03:30;5.00;;;4.43;;
37805;SDS011;25082;50.870;0.022;2023-02-21T07:05:55;6.10;;;4.50;;
37805;SDS011;25082;50.870;0.022;2023-02-21T07:08:21;7.65;;;5.03;;
37805;SDS011;25082;50.870;0.022;2023-02-21T07:10:47;6.28;;;4.90;;
37805;SDS011;25082;50.870;0.022;2023-02-21T07:13:13;5.65;;;4.22;;
37805;SDS011;25082;50.870;0.022;2023-02-21T07:15:38;5.68;;;4.18;;
37805;SDS011;25082;50.870;0.022;2023-02-21T07:18:04;5.47;;;3.95;;
37805;SDS011;25082;50.870;0.022;2023-02-21T07:20:30;6.20;;;4.05;;
37805;SDS011;25082;50.870;0.022;2023-02-21T07:22:57;5.75;;;4.22;;
37805;SDS011;25082;50.870;0.022;2023-02-21T07:25:23;5.50;;;4.15;;
37805;SDS011;25082;50.870;0.022;2023-02-21T07:27:49;5.32;;;4.30;;
37805;SDS011;25082;50.870;0.022;2023-02-21T07:30:16;4.80;;;3.78;;
37805;SDS011;25082;50.870;0.022;2023-02-21T07:32:43;5.70;;;4.75;;
37805;SDS011;25082;50.870;0.022;2023-02-21T07:35:09;6.65;;;3.85;;
37805;SDS011;25082;50.870;0.022;2023-02-21T07:37:36;5.65;;;4.13;;
37805;SDS011;25082;50.870;0.022;2023-02-21T07:40:02;3.63;;;2.95;;
37805;SDS011;25082;50.870;0.022;2023-02-21T07:42:31;7.10;;;4.00;;
37805;SDS011;25082;50.870;0.022;2023-02-21T07:44:56;4.90;;;3.85;;
37805;SDS011;25082;50.870;0.022;2023-02-21T07:47:23;4.82;;;3.70;;
37805;SDS011;25082;50.870;0.022;2023-02-21T07:49:50;4.95;;;4.15;;
37805;SDS011;25082;50.870;0.022;2023-02-21T07:52:18;6.20;;;3.67;;
37805;SDS011;25082;50.870;0.022;2023-02-21T07:54:44;6.03;;;3.72;;
37805;SDS011;25082;50.870;0.022;2023-02-21T07:57:10;4.88;;;3.47;;
37805;SDS011;25082;50.870;0.022;2023-02-21T07:59:36;4.13;;;3.50;;
37805;SDS011;25082;50.870;0.022;2023-02-21T08:02:02;4.32;;;3.30;;
37805;SDS011;25082;50.870;0.022;2023-02-21T08:04:28;4.45;;;3.50;;
37805;SDS011;25082;50.870;0.022;2023-02-21T08:07:01;3.80;;;3.30;;
37805;SDS011;25082;50.870;0.022;2023-02-21T08:09:28;3.72;;;3.33;;
37805;SDS011;25082;50.870;0.022;2023-02-21T08:11:53;4.80;;;3.42;;
37805;SDS011;25082;50.870;0.022;2023-02-21T08:14:19;5.75;;;3.47;;
37805;SDS011;25082;50.870;0.022;2023-02-21T08:16:45;4.55;;;3.75;;
37805;SDS011;25082;50.870;0.022;2023-02-21T08:19:10;3.95;;;3.13;;
37805;SDS011;25082;50.870;0.022;2023-02-21T08:21:36;4.55;;;3.35;;
37805;SDS011;25082;50.870;0.022;2023-02-21T08:24:02;4.55;;;3.38;;
37805;SDS011;25082;50.870;0.022;2023-02-21T08:26:28;4.35;;;3.67;;
37805;SDS011;25082;50.870;0.022;2023-02-21T08:28:54;3.65;;;2.95;;
37805;SDS011;25082;50.870;0.022;2023-02-21T08:31:20;4.45;;;3.10;;
37805;SDS011;25082;50.870;0.022;2023-02-21T08:33:46;4.40;;;3.05;;
37805;SDS011;25082;50.870;0.022;2023-02-21T08:36:11;3.97;;;3.00;;
37805;SDS011;25082;50.870;0.022;2023-02-21T08:38:37;3.95;;;2.67;;
37805;SDS011;25082;50.870;0.022;2023-02-21T08:41:04;4.35;;;2.80;;
37805;SDS011;25082;50.870;0.022;2023-02-21T08:43:30;3.38;;;2.65;;
37805;SDS011;25082;50.870;0.022;2023-02-21T08:45:56;4.30;;;2.70;;
37805;SDS011;25082;50.870;0.022;2023-02-21T08:48:22;3.20;;;2.50;;
37805;SDS011;25082;50.870;0.022;2023-02-21T08:50:48;3.55;;;2.60;;
37805;SDS011;25082;50.870;0.022;2023-02-21T08:53:16;3.30;;;2.97;;
37805;SDS011;25082;50.870;0.022;2023-02-21T08:55:42;4.20;;;2.50;;
37805;SDS011;25082;50.870;0.022;2023-02-21T08:58:08;3.58;;;2.35;;
37805;SDS011;25082;50.870;0.022;2023-02-21T09:00:35;3.92;;;2.58;;
37805;SDS011;25082;50.870;0.022;2023-02-21T09:03:01;2.72;;;2.42;;
37805;SDS011;25082;50.870;0.022;2023-02-21T09:05:27;2.58;;;2.20;;
37805;SDS011;25082;50.870;0.022;2023-02-21T09:07:55;3.35;;;2.47;;
37805;SDS011;25082;50.870;0.022;2023-02-21T09:10:26;2.65;;;2.30;;
37805;SDS011;25082;50.870;0.022;2023-02-21T09:12:54;3.40;;;2.65;;
37805;SDS011;25082;50.870;0.022;2023-02-21T09:15:20;3.38;;;2.58;;
37805;SDS011;25082;50.870;0.022;2023-02-21T09:17:46;4.63;;;2.95;;
37805;SDS011;25082;50.870;0.022;2023-02-21T09:20:15;5.28;;;2.63;;
37805;SDS011;25082;50.870;0.022;2023-02-21T09:22:45;4.18;;;2.45;;
37805;SDS011;25082;50.870;0.022;2023-02-21T09:25:12;2.97;;;2.30;;
37805;SDS011;25082;50.870;0.022;2023-02-21T09:27:39;4.18;;;2.70;;
37805;SDS011;25082;50.870;0.022;2023-02-21T09:30:13;4.22;;;2.47;;
37805;SDS011;25082;50.870;0.022;2023-02-21T09:32:41;4.20;;;2.50;;
37805;SDS011;25082;50.870;0.022;2023-02-21T09:35:07;5.93;;;3.22;;
37805;SDS011;25082;50.870;0.022;2023-02-21T09:37:38;9.77;;;3.30;;
37805;SDS011;25082;50.870;0.022;2023-02-21T09:40:23;8.90;;;3.88;;
37805;SDS011;25082;50.870;0.022;2023-02-21T09:42:52;11.13;;;4.00;;
37805;SDS011;25082;50.870;0.022;2023-02-21T09:45:21;8.20;;;4.30;;
37805;SDS011;25082;50.870;0.022;2023-02-21T09:47:51;10.73;;;3.15;;
37805;SDS011;25082;50.870;0.022;2023-02-21T09:50:22;12.23;;;3.63;;
37805;SDS011;25082;50.870;0.022;2023-02-21T09:52:55;9.85;;;4.10;;
37805;SDS011;25082;50.870;0.022;2023-02-21T09:55:30;21.20;;;4.10;;
37805;SDS011;25082;50.870;0.022;2023-02-21T09:58:00;12.07;;;3.38;;
37805;SDS011;25082;50.870;0.022;2023-02-21T10:00:35;6.45;;;3.40;;
37805;SDS011;25082;50.870;0.022;2023-02-21T10:03:06;13.63;;;3.38;;
37805;SDS011;25082;50.870;0.022;2023-02-21T10:08:28;11.18;;;2.70;;
37805;SDS011;25082;50.870;0.022;2023-02-21T10:17:10;9.80;;;2.55;;
37805;SDS011;25082;50.870;0.022;2023-02-21T10:19:47;8.57;;;2.45;;
37805;SDS011;25082;50.870;0.022;2023-02-21T10:22:18;13.48;;;2.58;;
37805;SDS011;25082;50.870;0.022;2023-02-21T10:24:44;5.65;;;2.28;;
37805;SDS011;25082;50.870;0.022;2023-02-21T10:27:21;13.82;;;2.20;;
37805;SDS011;25082;50.870;0.022;2023-02-21T10:32:19;9.00;;;2.30;;
37805;SDS011;25082;50.870;0.022;2023-02-21T10:34:47;14.20;;;2.95;;
37805;SDS011;25082;50.870;0.022;2023-02-21T10:39:48;8.70;;;3.17;;
37805;SDS011;25082;50.870;0.022;2023-02-21T10:42:25;13.85;;;3.05;;
37805;SDS011;25082;50.870;0.022;2023-02-21T10:44:58;20.88;;;4.22;;
37805;SDS011;25082;50.870;0.022;2023-02-21T10:47:28;29.38;;;4.45;;
37805;SDS011;25082;50.870;0.022;2023-02-21T10:50:13;17.73;;;3.60;;
37805;SDS011;25082;50.870;0.022;2023-02-21T10:52:47;21.92;;;4.03;;
37805;SDS011;25082;50.870;0.022;2023-02-21T10:55:18;16.23;;;3.95;;
37805;SDS011;25082;50.870;0.022;2023-02-21T10:57:49;27.80;;;4.55;;
37805;SDS011;25082;50.870;0.022;2023-02-21T11:00:32;24.05;;;4.90;;
37805;SDS011;25082;50.870;0.022;2023-02-21T11:03:19;23.30;;;4.85;;
37805;SDS011;25082;50.870;0.022;2023-02-21T11:05:50;19.67;;;3.92;;
37805;SDS011;25082;50.870;0.022;2023-02-21T11:11:07;29.55;;;5.32;;
37805;SDS011;25082;50.870;0.022;2023-02-21T11:13:35;26.30;;;4.93;;
37805;SDS011;25082;50.870;0.022;2023-02-21T11:16:11;23.70;;;5.03;;
37805;SDS011;25082;50.870;0.022;2023-02-21T11:18:41;20.60;;;4.63;;
37805;SDS011;25082;50.870;0.022;2023-02-21T11:21:11;17.02;;;4.28;;
37805;SDS011;25082;50.870;0.022;2023-02-21T11:23:46;22.10;;;4.38;;
37805;SDS011;25082;50.870;0.022;2023-02-21T11:26:21;18.05;;;3.83;;
37805;SDS011;25082;50.870;0.022;2023-02-21T11:28:47;19.83;;;3.63;;
37805;SDS011;25082;50.870;0.022;2023-02-21T11:31:20;18.98;;;3.40;;
37805;SDS011;25082;50.870;0.022;2023-02-21T11:36:25;21.08;;;3.75;;
37805;SDS011;25082;50.870;0.022;2023-02-21T11:39:32;20.48;;;4.40;;
37805;SDS011;25082;50.870;0.022;2023-02-21T11:42:00;18.55;;;3.67;;
37805;SDS011;25082;50.870;0.022;2023-02-21T11:44:38;22.20;;;3.50;;
37805;SDS011;25082;50.870;0.022;2023-02-21T11:50:07;17.42;;;2.60;;
37805;SDS011;25082;50.870;0.022;2023-02-21T11:52:41;14.90;;;2.55;;
37805;SDS011;25082;50.870;0.022;2023-02-21T11:55:17;15.68;;;3.58;;
37805;SDS011;25082;50.870;0.022;2023-02-21T11:57:54;13.25;;;3.30;;
37805;SDS011;25082;50.870;0.022;2023-02-21T12:00:42;15.10;;;3.17;;
37805;SDS011;25082;50.870;0.022;2023-02-21T12:22:45;12.98;;;2.90;;
37805;SDS011;25082;50.870;0.022;2023-02-21T12:30:49;13.05;;;2.30;;
37805;SDS011;25082;50.870;0.022;2023-02-21T12:36:04;12.00;;;2.35;;
37805;SDS011;25082;50.870;0.022;2023-02-21T12:49:20;12.50;;;2.15;;
37805;SDS011;25082;50.870;0.022;2023-02-21T13:00:16;18.58;;;2.83;;
37805;SDS011;25082;50.870;0.022;2023-02-21T13:06:01;13.82;;;3.03;;
37805;SDS011;25082;50.870;0.022;2023-02-21T13:08:52;13.18;;;2.05;;
37805;SDS011;25082;50.870;0.022;2023-02-21T13:11:38;7.32;;;2.05;;
37805;SDS011;25082;50.870;0.022;2023-02-21T13:14:34;14.07;;;2.70;;
37805;SDS011;25082;50.870;0.022;2023-02-21T13:17:13;11.88;;;1.98;;
37805;SDS011;25082;50.870;0.022;2023-02-21T13:19:44;12.55;;;2.35;;
37805;SDS011;25082;50.870;0.022;2023-02-21T13:25:24;10.73;;;2.75;;
37805;SDS011;25082;50.870;0.022;2023-02-21T13:28:28;9.95;;;1.92;;
37805;SDS011;25082;50.870;0.022;2023-02-21T13:31:00;11.45;;;2.10;;
37805;SDS011;25082;50.870;0.022;2023-02-21T13:39:12;14.43;;;2.92;;
37805;SDS011;25082;50.870;0.022;2023-02-21T13:44:25;5.95;;;1.85;;
37805;SDS011;25082;50.870;0.022;2023-02-21T13:47:05;7.22;;;1.88;;
37805;SDS011;25082;50.870;0.022;2023-02-21T13:58:29;4.28;;;1.85;;
37805;SDS011;25082;50.870;0.022;2023-02-21T14:05:25;4.50;;;1.53;;
37805;SDS011;25082;50.870;0.022;2023-02-21T14:23:51;3.58;;;1.50;;
37805;SDS011;25082;50.870;0.022;2023-02-21T14:26:35;6.38;;;1.55;;
37805;SDS011;25082;50.870;0.022;2023-02-21T14:31:56;3.28;;;1.30;;
37805;SDS011;25082;50.870;0.022;2023-02-21T14:53:39;2.88;;;1.15;;
37805;SDS011;25082;50.870;0.022;2023-02-21T15:01:40;3.03;;;1.20;;
37805;SDS011;25082;50.870;0.022;2023-02-21T15:10:09;12.10;;;2.78;;
37805;SDS011;25082;50.870;0.022;2023-02-21T15:12:38;14.15;;;2.70;;
37805;SDS011;25082;50.870;0.022;2023-02-21T15:15:45;10.63;;;2.53;;
37805;SDS011;25082;50.870;0.022;2023-02-21T15:20:36;13.18;;;2.40;;
37805;SDS011;25082;50.870;0.022;2023-02-21T15:23:10;17.58;;;2.78;;
37805;SDS011;25082;50.870;0.022;2023-02-21T15:25:38;8.40;;;2.35;;
37805;SDS011;25082;50.870;0.022;2023-02-21T15:28:06;11.60;;;2.10;;
37805;SDS011;25082;50.870;0.022;2023-02-21T15:30:53;12.88;;;2.30;;
37805;SDS011;25082;50.870;0.022;2023-02-21T15:33:27;13.32;;;1.92;;
37805;SDS011;25082;50.870;0.022;2023-02-21T15:36:00;4.78;;;1.60;;
37805;SDS011;25082;50.870;0.022;2023-02-21T15:38:48;3.22;;;1.90;;
37805;SDS011;25082;50.870;0.022;2023-02-21T15:41:27;7.80;;;1.48;;
37805;SDS011;25082;50.870;0.022;2023-02-21T15:47:02;6.43;;;1.50;;
37805;SDS011;25082;50.870;0.022;2023-02-21T15:49:33;7.88;;;1.88;;
37805;SDS011;25082;50.870;0.022;2023-02-21T15:52:24;4.50;;;1.50;;
37805;SDS011;25082;50.870;0.022;2023-02-21T15:57:44;9.50;;;1.48;;
37805;SDS011;25082;50.870;0.022;2023-02-21T16:00:26;6.10;;;1.50;;
37805;SDS011;25082;50.870;0.022;2023-02-21T16:06:08;6.32;;;1.38;;
37805;SDS011;25082;50.870;0.022;2023-02-21T16:08:38;9.40;;;4.47;;
37805;SDS011;25082;50.870;0.022;2023-02-21T16:11:14;8.57;;;4.22;;
37805;SDS011;25082;50.870;0.022;2023-02-21T16:13:41;10.23;;;5.15;;
37805;SDS011;25082;50.870;0.022;2023-02-21T16:16:07;17.27;;;5.40;;
37805;SDS011;25082;50.870;0.022;2023-02-21T16:18:33;12.75;;;4.55;;
37805;SDS011;25082;50.870;0.022;2023-02-21T16:21:00;15.35;;;4.03;;
37805;SDS011;25082;50.870;0.022;2023-02-21T16:28:34;5.20;;;1.92;;
37805;SDS011;25082;50.870;0.022;2023-02-21T16:31:01;5.28;;;1.85;;
37805;SDS011;25082;50.870;0.022;2023-02-21T16:33:29;12.52;;;2.28;;
37805;SDS011;25082;50.870;0.022;2023-02-21T16:35:56;7.93;;;1.85;;
37805;SDS011;25082;50.870;0.022;2023-02-21T16:38:23;10.55;;;2.05;;
37805;SDS011;25082;50.870;0.022;2023-02-21T16:40:50;8.43;;;1.52;;
37805;SDS011;25082;50.870;0.022;2023-02-21T16:43:23;9.57;;;2.10;;
37805;SDS011;25082;50.870;0.022;2023-02-21T16:45:53;9.38;;;2.10;;
37805;SDS011;25082;50.870;0.022;2023-02-21T16:48:22;25.67;;;4.72;;
37805;SDS011;25082;50.870;0.022;2023-02-21T16:50:52;15.25;;;3.05;;
37805;SDS011;25082;50.870;0.022;2023-02-21T16:53:18;20.00;;;2.97;;
37805;SDS011;25082;50.870;0.022;2023-02-21T16:55:45;17.98;;;3.63;;
37805;SDS011;25082;50.870;0.022;2023-02-21T16:58:18;27.50;;;3.30;;
37805;SDS011;25082;50.870;0.022;2023-02-21T17:00:51;13.75;;;2.60;;
37805;SDS011;25082;50.870;0.022;2023-02-21T17:03:19;10.98;;;2.08;;
37805;SDS011;25082;50.870;0.022;2023-02-21T17:05:45;12.13;;;2.25;;
37805;SDS011;25082;50.870;0.022;2023-02-21T17:08:11;8.20;;;1.80;;
37805;SDS011;25082;50.870;0.022;2023-02-21T17:10:38;10.63;;;1.88;;
37805;SDS011;25082;50.870;0.022;2023-02-21T17:13:03;12.20;;;2.10;;
37805;SDS011;25082;50.870;0.022;2023-02-21T17:15:29;12.27;;;2.05;;
37805;SDS011;25082;50.870;0.022;2023-02-21T17:17:56;10.48;;;2.15;;
37805;SDS011;25082;50.870;0.022;2023-02-21T17:20:22;17.40;;;2.53;;
37805;SDS011;25082;50.870;0.022;2023-02-21T17:22:49;7.97;;;1.35;;
37805;SDS011;25082;50.870;0.022;2023-02-21T17:25:16;16.02;;;2.00;;
37805;SDS011;25082;50.870;0.022;2023-02-21T17:27:43;6.95;;;1.60;;
37805;SDS011;25082;50.870;0.022;2023-02-21T17:30:09;6.07;;;1.90;;
37805;SDS011;25082;50.870;0.022;2023-02-21T17:32:35;5.93;;;1.58;;
37805;SDS011;25082;50.870;0.022;2023-02-21T17:35:02;8.85;;;1.80;;
37805;SDS011;25082;50.870;0.022;2023-02-21T17:37:28;5.43;;;1.70;;
37805;SDS011;25082;50.870;0.022;2023-02-21T17:39:54;5.25;;;1.45;;
37805;SDS011;25082;50.870;0.022;2023-02-21T17:42:20;7.22;;;1.70;;
37805;SDS011;25082;50.870;0.022;2023-02-21T17:44:47;12.07;;;2.10;;
37805;SDS011;25082;50.870;0.022;2023-02-21T17:47:17;6.68;;;1.42;;
37805;SDS011;25082;50.870;0.022;2023-02-21T17:49:43;8.00;;;1.83;;
37805;SDS011;25082;50.870;0.022;2023-02-21T17:52:12;7.47;;;2.17;;
37805;SDS011;25082;50.870;0.022;2023-02-21T17:54:39;7.65;;;1.60;;
37805;SDS011;25082;50.870;0.022;2023-02-21T17:57:05;11.30;;;1.73;;
37805;SDS011;25082;50.870;0.022;2023-02-21T17:59:33;8.13;;;1.83;;
37805;SDS011;25082;50.870;0.022;2023-02-21T18:01:59;5.72;;;1.88;;
37805;SDS011;25082;50.870;0.022;2023-02-21T18:04:25;4.28;;;1.33;;
37805;SDS011;25082;50.870;0.022;2023-02-21T18:06:51;3.88;;;1.65;;
37805;SDS011;25082;50.870;0.022;2023-02-21T18:09:17;3.00;;;1.63;;
37805;SDS011;25082;50.870;0.022;2023-02-21T18:11:53;6.35;;;2.08;;
37805;SDS011;25082;50.870;0.022;2023-02-21T18:14:21;7.57;;;1.95;;
37805;SDS011;25082;50.870;0.022;2023-02-21T18:16:47;3.40;;;1.60;;
37805;SDS011;25082;50.870;0.022;2023-02-21T18:19:13;4.50;;;1.60;;
37805;SDS011;25082;50.870;0.022;2023-02-21T18:21:39;3.88;;;1.88;;
37805;SDS011;25082;50.870;0.022;2023-02-21T18:24:07;2.03;;;1.23;;
37805;SDS011;25082;50.870;0.022;2023-02-21T18:26:33;5.88;;;1.30;;
37805;SDS011;25082;50.870;0.022;2023-02-21T18:28:59;5.85;;;2.00;;
37805;SDS011;25082;50.870;0.022;2023-02-21T18:31:25;4.38;;;1.83;;
37805;SDS011;25082;50.870;0.022;2023-02-21T18:33:51;21.30;;;3.83;;